Flight Track Log - Related Links

Times and Time Zones

All times are in EST time to prevent confusion due to time zone crossing. See the PDT4314 flight status page for this flight to view local times or setup timezone preferences in your user account.

Time Position Orientation Groundspeed Altitude Reporting Facility
EST Latitude Longitude Course Direction KTS MPH feet Rate Location/Type
Mon 07:02:00 PM 41.9875 -75.9074 180° South  Level Estimated
Mon 07:03:00 PM 41.9308 -75.9136 185° South  Level FlightAware Approximate
Mon 07:04:00 PM 41.8741 -75.9198 185° South  Level FlightAware Approximate
Mon 07:05:00 PM 42.1476 -75.9734 176° South  Level FlightAware Approximate
Mon 07:06:00 PM 42.0884 -75.9537 154° Southeast  Level Estimated
Mon 07:07:00 PM 42.0292 -75.9340 160° South  Level Estimated
Mon 07:08:00 PM 41.9699 -75.9143 159° South  Level Estimated
Mon 07:09:00 PM 41.9099 -75.8996 170° South  Level FlightAware Approximate
Mon 07:10:00 PM 41.8499 -75.8849 170° South  Level FlightAware Approximate
Mon 07:11:00 PM 41.7907 -75.8651 153° Southeast  Level Estimated
Mon 07:12:00 PM 41.7315 -75.8453 161° South  Level Estimated
Mon 07:13:00 PM 41.6725 -75.8246 165° South  Level FlightAware Approximate
Mon 07:14:00 PM 41.6135 -75.8039 165° South  Level FlightAware Approximate
Mon 07:15:00 PM 41.5543 -75.7843 162° South  Level Estimated
Mon 07:16:00 PM 41.4958 -75.7611 163° South  Level FlightAware Approximate
Mon 07:17:00 PM 41.4373 -75.7380 164° South  Level FlightAware Approximate
Mon 07:18:00 PM 41.3788 -75.7150 164° South  Level FlightAware Approximate
Mon 07:19:00 PM 41.3195 -75.6959 159° South  Level Estimated
Mon 07:20:00 PM 41.2602 -75.6768 163° South  Level Estimated
Mon 07:21:00 PM 41.2020 -75.6524 162° South  Level FlightAware Approximate
Mon 07:22:00 PM 41.1439 -75.6280 162° South  Level FlightAware Approximate
Mon 07:23:00 PM 41.0857 -75.6036 162° South  Level FlightAware Approximate
Mon 07:24:00 PM 41.0262 -75.5855 190° South  Level Estimated
Mon 07:25:00 PM 40.9657 -75.5756 173° South  Level FlightAware Approximate
Mon 07:26:00 PM 40.9052 -75.5657 173° South  Level FlightAware Approximate
Mon 07:26:33 PM 40.6500 -75.4667 184° South 237 273 7,400  Level Philadelphia TRACON
Mon 07:27:00 PM 40.8446 -75.5558 173° South  Level FlightAware Approximate
Mon 07:27:51 PM 40.5667 -75.5000 197° South 248 285 6,400  Level Philadelphia TRACON
Mon 07:28:00 PM 40.7854 -75.5364 187° South  Level Estimated
Mon 07:28:51 PM 40.5000 -75.4667 159° South 233 268 5,700  Level Philadelphia TRACON
Mon 07:29:00 PM 40.7244 -75.5332 178° South  Level FlightAware Approximate
Mon 07:29:45 PM 40.4500 -75.4167 143° Southeast 227 261 5,100  Level Philadelphia TRACON
Mon 07:30:00 PM 40.6655 -75.5127 190° South  Level Estimated
Mon 07:30:51 PM 40.4000 -75.3833 153° Southeast 223 257 5,000  Level Philadelphia TRACON
Mon 07:31:00 PM 40.6046 -75.5182 184° South  Level FlightAware Approximate
Mon 07:31:45 PM 40.3500 -75.3333 143° Southeast 217 250 5,000  Level Philadelphia TRACON
Mon 07:32:51 PM 40.2833 -75.2833 150° Southeast 230 265 4,100 -476 Descending Philadelphia TRACON
Mon 07:33:51 PM 40.2333 -75.2500 153° Southeast 223 257 4,000 -50 Descending Philadelphia TRACON
Mon 07:34:51 PM 40.1833 -75.2000 143° Southeast 212 244 4,000  Level Philadelphia TRACON
Mon 07:35:51 PM 40.1333 -75.1667 153° Southeast 204 235 4,000  Level Philadelphia TRACON
Mon 07:36:52 PM 40.1000 -75.1333 143° Southeast 190 219 4,000  Level Philadelphia TRACON
Mon 07:37:51 PM 40.0500 -75.1000 153° Southeast 193 222 4,000  Level Philadelphia TRACON
Mon 07:38:52 PM 40.0000 -75.0500 143° Southeast 192 221 4,000  Level Philadelphia TRACON
Mon 07:39:52 PM 40.0000 -74.9833 90° East 195 224 4,000 -150 Level Philadelphia TRACON
Mon 07:40:52 PM 39.9500 -75.0167 207° Southwest 199 229 3,700 -750 Descending Philadelphia TRACON
Mon 07:41:52 PM 39.9333 -75.0833 252° West 175 201 2,500 -1,050 Descending Philadelphia TRACON
Mon 07:42:52 PM 39.9000 -75.1333 229° Southwest 171 197 1,600 -850 Descending Philadelphia TRACON
Mon 07:43:52 PM 39.9000 -75.1667 270° West 112 129 800 -737 Descending Philadelphia TRACON
Mon 07:44:46 PM 39.8833 -75.2000 237° Southwest 113 130 200 -667 Descending Philadelphia TRACON

Login

Don't have an account? Register now (free) for customized features, flight alerts, and more!